sensor_id;sensor_type;location;lat;lon;timestamp;P1;durP1;ratioP1;P2;durP2;ratioP2
1446;SDS011;717;51.522;7.266;2022-07-18T05:46:15;3.72;;;1.30;;
1446;SDS011;717;51.522;7.266;2022-07-18T05:48:42;6.40;;;1.10;;
1446;SDS011;717;51.522;7.266;2022-07-18T05:51:09;4.32;;;1.25;;
1446;SDS011;717;51.522;7.266;2022-07-18T05:53:36;3.75;;;1.27;;
1446;SDS011;717;51.522;7.266;2022-07-18T05:56:02;5.35;;;1.20;;
1446;SDS011;717;51.522;7.266;2022-07-18T05:58:30;2.60;;;1.20;;
1446;SDS011;717;51.522;7.266;2022-07-18T06:00:57;1.73;;;1.20;;
1446;SDS011;717;51.522;7.266;2022-07-18T06:03:25;3.10;;;1.65;;
1446;SDS011;717;51.522;7.266;2022-07-18T06:05:51;4.93;;;1.30;;
1446;SDS011;717;51.522;7.266;2022-07-18T06:08:18;4.50;;;1.52;;
1446;SDS011;717;51.522;7.266;2022-07-18T06:10:45;3.53;;;1.30;;
1446;SDS011;717;51.522;7.266;2022-07-18T06:13:11;4.05;;;1.42;;
1446;SDS011;717;51.522;7.266;2022-07-18T06:15:38;9.15;;;1.52;;
1446;SDS011;717;51.522;7.266;2022-07-18T06:18:05;6.60;;;1.42;;
1446;SDS011;717;51.522;7.266;2022-07-18T06:20:33;4.40;;;1.40;;
1446;SDS011;717;51.522;7.266;2022-07-18T06:22:59;3.22;;;1.33;;
1446;SDS011;717;51.522;7.266;2022-07-18T06:25:26;2.40;;;1.17;;
1446;SDS011;717;51.522;7.266;2022-07-18T06:27:52;4.10;;;1.00;;
1446;SDS011;717;51.522;7.266;2022-07-18T06:30:19;3.83;;;1.10;;
1446;SDS011;717;51.522;7.266;2022-07-18T06:32:48;4.15;;;1.10;;
1446;SDS011;717;51.522;7.266;2022-07-18T06:35:14;2.92;;;1.15;;
1446;SDS011;717;51.522;7.266;2022-07-18T06:37:43;7.18;;;1.30;;
1446;SDS011;717;51.522;7.266;2022-07-18T06:40:10;3.92;;;1.50;;
1446;SDS011;717;51.522;7.266;2022-07-18T06:42:37;3.22;;;1.02;;
1446;SDS011;717;51.522;7.266;2022-07-18T06:45:04;1.80;;;1.27;;
1446;SDS011;717;51.522;7.266;2022-07-18T06:47:32;4.60;;;1.20;;
1446;SDS011;717;51.522;7.266;2022-07-18T06:49:59;5.63;;;1.60;;
1446;SDS011;717;51.522;7.266;2022-07-18T06:52:25;3.90;;;1.27;;
1446;SDS011;717;51.522;7.266;2022-07-18T06:54:53;3.17;;;1.00;;
1446;SDS011;717;51.522;7.266;2022-07-18T06:57:20;3.70;;;0.85;;
1446;SDS011;717;51.522;7.266;2022-07-18T06:59:47;1.92;;;0.75;;
1446;SDS011;717;51.522;7.266;2022-07-18T07:02:13;2.65;;;0.90;;
1446;SDS011;717;51.522;7.266;2022-07-18T07:04:41;3.85;;;1.00;;
1446;SDS011;717;51.522;7.266;2022-07-18T07:07:07;3.28;;;1.10;;
1446;SDS011;717;51.522;7.266;2022-07-18T07:09:34;3.45;;;1.05;;
1446;SDS011;717;51.522;7.266;2022-07-18T07:12:02;6.45;;;1.40;;
1446;SDS011;717;51.522;7.266;2022-07-18T07:14:29;4.05;;;0.88;;
1446;SDS011;717;51.522;7.266;2022-07-18T07:16:56;1.95;;;0.80;;
1446;SDS011;717;51.522;7.266;2022-07-18T07:19:22;2.85;;;1.02;;
1446;SDS011;717;51.522;7.266;2022-07-18T07:21:49;4.07;;;0.93;;
1446;SDS011;717;51.522;7.266;2022-07-18T07:24:16;3.38;;;1.10;;
1446;SDS011;717;51.522;7.266;2022-07-18T07:26:43;2.25;;;1.00;;
1446;SDS011;717;51.522;7.266;2022-07-18T07:29:11;4.55;;;1.00;;
1446;SDS011;717;51.522;7.266;2022-07-18T07:31:37;4.25;;;1.00;;
1446;SDS011;717;51.522;7.266;2022-07-18T07:34:04;2.83;;;0.93;;
1446;SDS011;717;51.522;7.266;2022-07-18T07:36:31;3.60;;;0.80;;
1446;SDS011;717;51.522;7.266;2022-07-18T07:38:57;3.63;;;0.90;;
1446;SDS011;717;51.522;7.266;2022-07-18T07:41:24;2.35;;;1.00;;
1446;SDS011;717;51.522;7.266;2022-07-18T07:43:51;2.85;;;1.02;;
1446;SDS011;717;51.522;7.266;2022-07-18T07:46:19;5.95;;;0.98;;
1446;SDS011;717;51.522;7.266;2022-07-18T07:48:45;2.53;;;1.15;;
1446;SDS011;717;51.522;7.266;2022-07-18T07:51:13;1.92;;;0.70;;
1446;SDS011;717;51.522;7.266;2022-07-18T07:53:40;2.60;;;1.10;;
1446;SDS011;717;51.522;7.266;2022-07-18T07:56:07;3.50;;;1.08;;
1446;SDS011;717;51.522;7.266;2022-07-18T07:58:34;6.00;;;1.17;;
1446;SDS011;717;51.522;7.266;2022-07-18T08:01:00;3.33;;;0.95;;
1446;SDS011;717;51.522;7.266;2022-07-18T08:03:28;2.17;;;1.00;;
1446;SDS011;717;51.522;7.266;2022-07-18T08:05:56;5.90;;;0.95;;
1446;SDS011;717;51.522;7.266;2022-07-18T08:08:22;2.28;;;0.90;;
1446;SDS011;717;51.522;7.266;2022-07-18T08:10:50;1.58;;;0.80;;
1446;SDS011;717;51.522;7.266;2022-07-18T08:13:18;1.55;;;0.82;;
1446;SDS011;717;51.522;7.266;2022-07-18T08:15:45;3.17;;;0.85;;
1446;SDS011;717;51.522;7.266;2022-07-18T08:18:11;1.95;;;1.00;;
1446;SDS011;717;51.522;7.266;2022-07-18T08:20:39;2.08;;;1.17;;
1446;SDS011;717;51.522;7.266;2022-07-18T08:23:07;3.47;;;0.90;;
1446;SDS011;717;51.522;7.266;2022-07-18T08:25:36;2.88;;;1.15;;
1446;SDS011;717;51.522;7.266;2022-07-18T08:28:04;1.65;;;0.88;;
1446;SDS011;717;51.522;7.266;2022-07-18T08:30:31;3.65;;;0.80;;
1446;SDS011;717;51.522;7.266;2022-07-18T08:32:59;2.35;;;0.88;;
1446;SDS011;717;51.522;7.266;2022-07-18T08:35:26;3.65;;;0.77;;
1446;SDS011;717;51.522;7.266;2022-07-18T08:37:54;2.33;;;0.85;;
1446;SDS011;717;51.522;7.266;2022-07-18T08:40:21;5.68;;;0.80;;
1446;SDS011;717;51.522;7.266;2022-07-18T08:42:48;3.03;;;1.00;;
1446;SDS011;717;51.522;7.266;2022-07-18T08:45:18;1.33;;;0.70;;
1446;SDS011;717;51.522;7.266;2022-07-18T08:47:46;4.85;;;1.40;;
1446;SDS011;717;51.522;7.266;2022-07-18T08:50:13;2.60;;;0.90;;
1446;SDS011;717;51.522;7.266;2022-07-18T08:52:40;4.05;;;0.73;;
1446;SDS011;717;51.522;7.266;2022-07-18T08:55:08;4.03;;;0.90;;
1446;SDS011;717;51.522;7.266;2022-07-18T08:57:35;3.75;;;1.00;;
1446;SDS011;717;51.522;7.266;2022-07-18T09:00:03;1.60;;;0.90;;
1446;SDS011;717;51.522;7.266;2022-07-18T09:02:31;1.33;;;0.77;;
1446;SDS011;717;51.522;7.266;2022-07-18T09:04:59;1.15;;;0.90;;
1446;SDS011;717;51.522;7.266;2022-07-18T09:07:28;4.03;;;0.80;;
1446;SDS011;717;51.522;7.266;2022-07-18T09:09:58;3.45;;;0.80;;
1446;SDS011;717;51.522;7.266;2022-07-18T09:12:27;1.70;;;0.80;;
1446;SDS011;717;51.522;7.266;2022-07-18T09:14:56;3.13;;;0.70;;
1446;SDS011;717;51.522;7.266;2022-07-18T09:17:25;2.50;;;0.80;;
1446;SDS011;717;51.522;7.266;2022-07-18T09:19:58;1.77;;;0.70;;
1446;SDS011;717;51.522;7.266;2022-07-18T09:22:27;0.88;;;0.60;;
1446;SDS011;717;51.522;7.266;2022-07-18T09:24:56;3.00;;;0.75;;
1446;SDS011;717;51.522;7.266;2022-07-18T09:27:31;1.85;;;0.77;;
1446;SDS011;717;51.522;7.266;2022-07-18T09:30:19;2.83;;;0.70;;
1446;SDS011;717;51.522;7.266;2022-07-18T09:32:51;2.03;;;1.00;;
1446;SDS011;717;51.522;7.266;2022-07-18T09:35:21;2.25;;;0.70;;
1446;SDS011;717;51.522;7.266;2022-07-18T09:37:54;1.98;;;0.90;;
1446;SDS011;717;51.522;7.266;2022-07-18T09:40:23;2.45;;;0.88;;
1446;SDS011;717;51.522;7.266;2022-07-18T09:42:53;1.20;;;0.90;;
1446;SDS011;717;51.522;7.266;2022-07-18T09:45:22;3.17;;;0.90;;
1446;SDS011;717;51.522;7.266;2022-07-18T09:47:50;3.15;;;0.77;;
1446;SDS011;717;51.522;7.266;2022-07-18T09:50:19;2.25;;;1.00;;
1446;SDS011;717;51.522;7.266;2022-07-18T09:52:58;3.63;;;1.00;;
1446;SDS011;717;51.522;7.266;2022-07-18T09:55:26;1.48;;;0.90;;
1446;SDS011;717;51.522;7.266;2022-07-18T09:58:02;1.00;;;0.80;;
1446;SDS011;717;51.522;7.266;2022-07-18T10:00:31;1.48;;;0.88;;
1446;SDS011;717;51.522;7.266;2022-07-18T10:02:59;1.25;;;1.00;;
1446;SDS011;717;51.522;7.266;2022-07-18T10:05:27;2.65;;;1.13;;
1446;SDS011;717;51.522;7.266;2022-07-18T10:07:55;3.10;;;1.20;;
1446;SDS011;717;51.522;7.266;2022-07-18T10:10:23;1.65;;;0.68;;
1446;SDS011;717;51.522;7.266;2022-07-18T10:12:51;1.80;;;0.90;;
1446;SDS011;717;51.522;7.266;2022-07-18T10:15:22;1.40;;;1.23;;
1446;SDS011;717;51.522;7.266;2022-07-18T10:17:50;3.60;;;1.30;;
1446;SDS011;717;51.522;7.266;2022-07-18T10:20:18;1.25;;;1.00;;
1446;SDS011;717;51.522;7.266;2022-07-18T10:22:51;2.20;;;1.25;;
1446;SDS011;717;51.522;7.266;2022-07-18T10:25:21;1.35;;;1.00;;
1446;SDS011;717;51.522;7.266;2022-07-18T10:27:49;2.60;;;1.20;;
1446;SDS011;717;51.522;7.266;2022-07-18T10:30:28;3.28;;;1.15;;
1446;SDS011;717;51.522;7.266;2022-07-18T10:32:57;3.50;;;1.23;;
1446;SDS011;717;51.522;7.266;2022-07-18T10:38:25;1.85;;;1.30;;
1446;SDS011;717;51.522;7.266;2022-07-18T10:41:11;3.25;;;1.23;;
1446;SDS011;717;51.522;7.266;2022-07-18T10:43:43;2.83;;;1.27;;
1446;SDS011;717;51.522;7.266;2022-07-18T10:46:12;1.48;;;1.25;;
1446;SDS011;717;51.522;7.266;2022-07-18T10:48:52;1.25;;;1.10;;
1446;SDS011;717;51.522;7.266;2022-07-18T10:51:27;2.42;;;1.33;;
1446;SDS011;717;51.522;7.266;2022-07-18T10:54:08;1.75;;;1.15;;
1446;SDS011;717;51.522;7.266;2022-07-18T10:59:32;1.77;;;1.10;;
1446;SDS011;717;51.522;7.266;2022-07-18T11:02:03;2.13;;;1.23;;
1446;SDS011;717;51.522;7.266;2022-07-18T11:04:36;3.10;;;1.23;;
1446;SDS011;717;51.522;7.266;2022-07-18T11:07:07;2.03;;;1.13;;
1446;SDS011;717;51.522;7.266;2022-07-18T11:09:42;2.33;;;1.20;;
1446;SDS011;717;51.522;7.266;2022-07-18T11:12:17;3.22;;;1.20;;
1446;SDS011;717;51.522;7.266;2022-07-18T11:15:07;2.65;;;1.58;;
1446;SDS011;717;51.522;7.266;2022-07-18T11:20:26;2.15;;;1.13;;
1446;SDS011;717;51.522;7.266;2022-07-18T11:22:54;2.28;;;0.88;;
1446;SDS011;717;51.522;7.266;2022-07-18T11:25:24;2.00;;;1.00;;
1446;SDS011;717;51.522;7.266;2022-07-18T11:27:52;1.25;;;1.00;;
1446;SDS011;717;51.522;7.266;2022-07-18T11:30:22;2.92;;;1.00;;
1446;SDS011;717;51.522;7.266;2022-07-18T11:32:50;3.58;;;1.10;;
1446;SDS011;717;51.522;7.266;2022-07-18T11:35:22;2.83;;;1.20;;
1446;SDS011;717;51.522;7.266;2022-07-18T11:37:50;1.70;;;1.02;;
1446;SDS011;717;51.522;7.266;2022-07-18T11:40:18;3.58;;;0.90;;
1446;SDS011;717;51.522;7.266;2022-07-18T11:42:45;1.85;;;1.10;;
1446;SDS011;717;51.522;7.266;2022-07-18T11:45:13;2.10;;;1.00;;
1446;SDS011;717;51.522;7.266;2022-07-18T11:47:45;1.63;;;0.95;;
1446;SDS011;717;51.522;7.266;2022-07-18T11:50:13;2.45;;;1.10;;
1446;SDS011;717;51.522;7.266;2022-07-18T11:52:41;1.55;;;0.82;;
1446;SDS011;717;51.522;7.266;2022-07-18T11:55:10;1.77;;;0.85;;
1446;SDS011;717;51.522;7.266;2022-07-18T11:57:37;2.78;;;1.10;;
1446;SDS011;717;51.522;7.266;2022-07-18T12:00:13;2.47;;;1.30;;
1446;SDS011;717;51.522;7.266;2022-07-18T12:02:41;3.00;;;1.10;;
1446;SDS011;717;51.522;7.266;2022-07-18T12:05:08;2.35;;;1.13;;
1446;SDS011;717;51.522;7.266;2022-07-18T12:07:34;2.30;;;0.90;;
1446;SDS011;717;51.522;7.266;2022-07-18T12:10:15;2.67;;;1.13;;
1446;SDS011;717;51.522;7.266;2022-07-18T12:12:42;2.90;;;0.98;;
1446;SDS011;717;51.522;7.266;2022-07-18T12:15:09;1.90;;;1.00;;
1446;SDS011;717;51.522;7.266;2022-07-18T12:17:42;2.85;;;1.13;;
1446;SDS011;717;51.522;7.266;2022-07-18T12:20:10;1.80;;;1.00;;
1446;SDS011;717;51.522;7.266;2022-07-18T12:28:26;2.63;;;1.33;;
1446;SDS011;717;51.522;7.266;2022-07-18T12:30:53;2.22;;;1.00;;
1446;SDS011;717;51.522;7.266;2022-07-18T12:33:20;1.88;;;1.10;;
1446;SDS011;717;51.522;7.266;2022-07-18T12:35:54;2.25;;;0.80;;
1446;SDS011;717;51.522;7.266;2022-07-18T12:38:22;1.00;;;0.90;;
1446;SDS011;717;51.522;7.266;2022-07-18T12:40:49;2.28;;;0.95;;
1446;SDS011;717;51.522;7.266;2022-07-18T12:43:23;5.47;;;1.33;;
1446;SDS011;717;51.522;7.266;2022-07-18T12:45:51;1.27;;;0.90;;
1446;SDS011;717;51.522;7.266;2022-07-18T12:48:19;1.75;;;1.05;;
1446;SDS011;717;51.522;7.266;2022-07-18T12:50:46;2.40;;;1.10;;
1446;SDS011;717;51.522;7.266;2022-07-18T12:53:20;1.27;;;1.17;;
1446;SDS011;717;51.522;7.266;2022-07-18T12:55:47;2.80;;;1.20;;
1446;SDS011;717;51.522;7.266;2022-07-18T12:58:13;2.10;;;0.90;;
1446;SDS011;717;51.522;7.266;2022-07-18T13:00:41;2.65;;;0.93;;
1446;SDS011;717;51.522;7.266;2022-07-18T13:03:09;1.85;;;0.90;;
1446;SDS011;717;51.522;7.266;2022-07-18T13:05:35;1.67;;;1.00;;
1446;SDS011;717;51.522;7.266;2022-07-18T13:08:02;2.28;;;1.10;;
1446;SDS011;717;51.522;7.266;2022-07-18T13:10:31;2.35;;;1.20;;
1446;SDS011;717;51.522;7.266;2022-07-18T13:12:58;2.65;;;1.30;;
1446;SDS011;717;51.522;7.266;2022-07-18T13:15:27;3.08;;;1.00;;
1446;SDS011;717;51.522;7.266;2022-07-18T13:17:55;4.10;;;1.10;;
1446;SDS011;717;51.522;7.266;2022-07-18T13:20:22;2.88;;;1.02;;
1446;SDS011;717;51.522;7.266;2022-07-18T13:22:50;1.63;;;0.70;;
1446;SDS011;717;51.522;7.266;2022-07-18T13:25:17;3.20;;;0.98;;
1446;SDS011;717;51.522;7.266;2022-07-18T13:27:44;2.20;;;0.77;;
1446;SDS011;717;51.522;7.266;2022-07-18T13:30:11;5.60;;;0.98;;
1446;SDS011;717;51.522;7.266;2022-07-18T13:32:38;1.75;;;0.82;;
1446;SDS011;717;51.522;7.266;2022-07-18T13:35:08;2.05;;;0.90;;
1446;SDS011;717;51.522;7.266;2022-07-18T13:37:35;2.50;;;1.20;;
1446;SDS011;717;51.522;7.266;2022-07-18T13:40:02;1.83;;;1.00;;
1446;SDS011;717;51.522;7.266;2022-07-18T13:42:31;3.65;;;1.20;;
1446;SDS011;717;51.522;7.266;2022-07-18T13:44:57;1.80;;;1.00;;
1446;SDS011;717;51.522;7.266;2022-07-18T13:47:24;3.38;;;0.90;;
1446;SDS011;717;51.522;7.266;2022-07-18T13:49:51;4.65;;;1.10;;
1446;SDS011;717;51.522;7.266;2022-07-18T13:52:19;2.65;;;1.20;;
1446;SDS011;717;51.522;7.266;2022-07-18T13:54:46;4.45;;;1.20;;
1446;SDS011;717;51.522;7.266;2022-07-18T13:57:14;1.92;;;0.93;;
1446;SDS011;717;51.522;7.266;2022-07-18T13:59:41;2.67;;;1.20;;
1446;SDS011;717;51.522;7.266;2022-07-18T14:02:07;2.17;;;1.15;;
1446;SDS011;717;51.522;7.266;2022-07-18T14:04:34;3.20;;;1.30;;
1446;SDS011;717;51.522;7.266;2022-07-18T14:07:01;3.42;;;1.27;;
1446;SDS011;717;51.522;7.266;2022-07-18T14:09:29;0.90;;;0.80;;
1446;SDS011;717;51.522;7.266;2022-07-18T14:11:55;1.17;;;0.95;;
1446;SDS011;717;51.522;7.266;2022-07-18T14:14:22;2.60;;;1.30;;
1446;SDS011;717;51.522;7.266;2022-07-18T14:16:49;1.80;;;0.95;;
1446;SDS011;717;51.522;7.266;2022-07-18T14:19:16;1.38;;;0.80;;
1446;SDS011;717;51.522;7.266;2022-07-18T14:21:44;2.42;;;0.98;;
1446;SDS011;717;51.522;7.266;2022-07-18T14:24:11;3.17;;;1.23;;
1446;SDS011;717;51.522;7.266;2022-07-18T14:26:39;2.17;;;0.90;;
1446;SDS011;717;51.522;7.266;2022-07-18T14:29:06;1.58;;;0.95;;
1446;SDS011;717;51.522;7.266;2022-07-18T14:31:32;3.95;;;1.10;;
1446;SDS011;717;51.522;7.266;2022-07-18T14:33:59;1.83;;;1.00;;
1446;SDS011;717;51.522;7.266;2022-07-18T14:36:25;3.20;;;1.10;;
1446;SDS011;717;51.522;7.266;2022-07-18T14:38:52;1.80;;;0.80;;
1446;SDS011;717;51.522;7.266;2022-07-18T14:41:19;2.65;;;1.15;;
1446;SDS011;717;51.522;7.266;2022-07-18T14:43:47;4.25;;;1.10;;
1446;SDS011;717;51.522;7.266;2022-07-18T14:46:14;2.63;;;0.98;;
1446;SDS011;717;51.522;7.266;2022-07-18T14:48:40;4.05;;;1.00;;
1446;SDS011;717;51.522;7.266;2022-07-18T14:51:07;2.80;;;1.17;;
1446;SDS011;717;51.522;7.266;2022-07-18T14:53:34;4.78;;;1.67;;
1446;SDS011;717;51.522;7.266;2022-07-18T14:56:02;3.17;;;1.23;;
1446;SDS011;717;51.522;7.266;2022-07-18T14:58:28;1.65;;;1.20;;
1446;SDS011;717;51.522;7.266;2022-07-18T15:00:56;4.40;;;1.23;;
1446;SDS011;717;51.522;7.266;2022-07-18T15:03:23;4.53;;;1.40;;
1446;SDS011;717;51.522;7.266;2022-07-18T15:05:50;2.90;;;1.17;;
1446;SDS011;717;51.522;7.266;2022-07-18T15:08:16;1.95;;;0.85;;
1446;SDS011;717;51.522;7.266;2022-07-18T15:10:43;2.33;;;1.23;;
1446;SDS011;717;51.522;7.266;2022-07-18T15:13:10;4.70;;;1.00;;
1446;SDS011;717;51.522;7.266;2022-07-18T15:15:36;2.83;;;1.35;;
1446;SDS011;717;51.522;7.266;2022-07-18T15:18:04;2.45;;;1.00;;
1446;SDS011;717;51.522;7.266;2022-07-18T15:20:31;3.67;;;1.00;;
1446;SDS011;717;51.522;7.266;2022-07-18T15:22:57;5.45;;;1.23;;
1446;SDS011;717;51.522;7.266;2022-07-18T15:25:24;1.73;;;1.00;;
1446;SDS011;717;51.522;7.266;2022-07-18T15:27:51;1.58;;;1.02;;
1446;SDS011;717;51.522;7.266;2022-07-18T15:30:17;2.55;;;1.20;;
1446;SDS011;717;51.522;7.266;2022-07-18T15:32:44;3.88;;;1.20;;
1446;SDS011;717;51.522;7.266;2022-07-18T15:35:12;3.65;;;1.20;;
1446;SDS011;717;51.522;7.266;2022-07-18T15:37:39;1.63;;;0.95;;
1446;SDS011;717;51.522;7.266;2022-07-18T15:40:06;2.28;;;1.08;;
1446;SDS011;717;51.522;7.266;2022-07-18T15:42:33;3.05;;;1.35;;
1446;SDS011;717;51.522;7.266;2022-07-18T15:44:59;1.98;;;1.20;;
1446;SDS011;717;51.522;7.266;2022-07-18T15:47:26;1.33;;;0.88;;
1446;SDS011;717;51.522;7.266;2022-07-18T15:49:53;1.50;;;0.93;;
1446;SDS011;717;51.522;7.266;2022-07-18T15:52:21;1.27;;;0.73;;
1446;SDS011;717;51.522;7.266;2022-07-18T15:54:47;3.65;;;1.30;;
1446;SDS011;717;51.522;7.266;2022-07-18T15:57:14;2.08;;;1.00;;
1446;SDS011;717;51.522;7.266;2022-07-18T15:59:41;3.67;;;1.23;;
1446;SDS011;717;51.522;7.266;2022-07-18T16:02:08;1.90;;;1.02;;
1446;SDS011;717;51.522;7.266;2022-07-18T16:04:35;3.40;;;1.27;;
1446;SDS011;717;51.522;7.266;2022-07-18T16:07:02;3.88;;;1.50;;
1446;SDS011;717;51.522;7.266;2022-07-18T16:09:30;5.00;;;1.00;;
1446;SDS011;717;51.522;7.266;2022-07-18T16:11:56;2.28;;;1.00;;
1446;SDS011;717;51.522;7.266;2022-07-18T16:14:23;4.60;;;1.50;;
1446;SDS011;717;51.522;7.266;2022-07-18T16:16:50;2.95;;;1.10;;
1446;SDS011;717;51.522;7.266;2022-07-18T16:19:16;3.03;;;1.23;;
1446;SDS011;717;51.522;7.266;2022-07-18T16:21:43;2.80;;;0.93;;
1446;SDS011;717;51.522;7.266;2022-07-18T16:24:09;2.42;;;1.00;;
1446;SDS011;717;51.522;7.266;2022-07-18T16:26:37;1.55;;;1.15;;
1446;SDS011;717;51.522;7.266;2022-07-18T16:29:04;2.90;;;1.10;;
1446;SDS011;717;51.522;7.266;2022-07-18T16:31:31;2.70;;;1.02;;
1446;SDS011;717;51.522;7.266;2022-07-18T16:33:58;2.78;;;0.90;;
1446;SDS011;717;51.522;7.266;2022-07-18T16:36:24;3.42;;;1.10;;
1446;SDS011;717;51.522;7.266;2022-07-18T16:38:51;4.72;;;1.30;;
1446;SDS011;717;51.522;7.266;2022-07-18T16:41:18;2.30;;;1.00;;
1446;SDS011;717;51.522;7.266;2022-07-18T16:43:46;2.42;;;1.10;;
1446;SDS011;717;51.522;7.266;2022-07-18T16:46:13;1.88;;;1.08;;
1446;SDS011;717;51.522;7.266;2022-07-18T16:48:40;4.90;;;1.23;;
1446;SDS011;717;51.522;7.266;2022-07-18T16:51:08;1.88;;;1.10;;
1446;SDS011;717;51.522;7.266;2022-07-18T16:53:35;3.28;;;1.10;;
1446;SDS011;717;51.522;7.266;2022-07-18T16:56:03;4.40;;;1.42;;
1446;SDS011;717;51.522;7.266;2022-07-18T16:58:31;3.50;;;1.20;;
1446;SDS011;717;51.522;7.266;2022-07-18T17:01:00;1.38;;;1.10;;
1446;SDS011;717;51.522;7.266;2022-07-18T17:03:28;3.03;;;1.13;;
1446;SDS011;717;51.522;7.266;2022-07-18T17:05:56;2.42;;;1.40;;
1446;SDS011;717;51.522;7.266;2022-07-18T17:08:24;2.40;;;1.20;;
1446;SDS011;717;51.522;7.266;2022-07-18T17:10:51;3.28;;;1.10;;
1446;SDS011;717;51.522;7.266;2022-07-18T17:13:18;2.97;;;1.00;;
1446;SDS011;717;51.522;7.266;2022-07-18T17:15:45;2.85;;;1.10;;
1446;SDS011;717;51.522;7.266;2022-07-18T17:18:14;2.38;;;1.13;;
1446;SDS011;717;51.522;7.266;2022-07-18T17:20:43;6.88;;;1.30;;
1446;SDS011;717;51.522;7.266;2022-07-18T17:23:12;2.83;;;1.10;;
1446;SDS011;717;51.522;7.266;2022-07-18T17:25:40;4.00;;;1.20;;
1446;SDS011;717;51.522;7.266;2022-07-18T17:28:07;3.03;;;1.17;;
1446;SDS011;717;51.522;7.266;2022-07-18T17:30:34;2.33;;;1.15;;
1446;SDS011;717;51.522;7.266;2022-07-18T17:33:02;3.03;;;1.35;;
1446;SDS011;717;51.522;7.266;2022-07-18T17:35:31;1.63;;;1.08;;
1446;SDS011;717;51.522;7.266;2022-07-18T17:37:58;3.63;;;1.27;;
1446;SDS011;717;51.522;7.266;2022-07-18T17:40:26;1.30;;;1.05;;
1446;SDS011;717;51.522;7.266;2022-07-18T17:42:53;4.38;;;1.20;;
1446;SDS011;717;51.522;7.266;2022-07-18T17:45:20;3.35;;;1.05;;
1446;SDS011;717;51.522;7.266;2022-07-18T17:47:50;3.10;;;1.00;;
1446;SDS011;717;51.522;7.266;2022-07-18T17:50:17;2.20;;;1.10;;
1446;SDS011;717;51.522;7.266;2022-07-18T17:52:45;3.50;;;1.20;;
1446;SDS011;717;51.522;7.266;2022-07-18T17:55:14;4.40;;;1.08;;
1446;SDS011;717;51.522;7.266;2022-07-18T17:57:41;1.60;;;1.10;;
1446;SDS011;717;51.522;7.266;2022-07-18T18:00:09;2.95;;;1.63;;
1446;SDS011;717;51.522;7.266;2022-07-18T18:02:36;3.25;;;1.13;;
1446;SDS011;717;51.522;7.266;2022-07-18T18:05:04;7.53;;;2.67;;
1446;SDS011;717;51.522;7.266;2022-07-18T18:07:31;2.03;;;1.25;;
1446;SDS011;717;51.522;7.266;2022-07-18T18:10:00;2.80;;;1.30;;
1446;SDS011;717;51.522;7.266;2022-07-18T18:12:27;3.97;;;1.30;;
1446;SDS011;717;51.522;7.266;2022-07-18T18:14:54;2.85;;;1.10;;
1446;SDS011;717;51.522;7.266;2022-07-18T18:17:21;6.35;;;1.50;;
1446;SDS011;717;51.522;7.266;2022-07-18T18:19:48;2.70;;;1.63;;
1446;SDS011;717;51.522;7.266;2022-07-18T18:22:15;3.53;;;1.73;;
1446;SDS011;717;51.522;7.266;2022-07-18T18:24:41;4.18;;;1.85;;
1446;SDS011;717;51.522;7.266;2022-07-18T18:27:10;2.78;;;1.42;;
1446;SDS011;717;51.522;7.266;2022-07-18T18:29:36;4.82;;;1.50;;
1446;SDS011;717;51.522;7.266;2022-07-18T18:32:04;5.90;;;1.50;;
1446;SDS011;717;51.522;7.266;2022-07-18T18:34:30;1.92;;;1.20;;
1446;SDS011;717;51.522;7.266;2022-07-18T18:36:57;4.43;;;1.70;;
1446;SDS011;717;51.522;7.266;2022-07-18T18:39:24;2.85;;;1.67;;
1446;SDS011;717;51.522;7.266;2022-07-18T18:41:52;2.40;;;1.42;;
1446;SDS011;717;51.522;7.266;2022-07-18T18:44:20;4.20;;;1.98;;
1446;SDS011;717;51.522;7.266;2022-07-18T18:46:48;3.25;;;1.58;;
1446;SDS011;717;51.522;7.266;2022-07-18T18:49:15;1.70;;;1.52;;
1446;SDS011;717;51.522;7.266;2022-07-18T18:51:43;3.10;;;1.75;;
1446;SDS011;717;51.522;7.266;2022-07-18T18:54:10;4.63;;;2.00;;
1446;SDS011;717;51.522;7.266;2022-07-18T18:56:38;4.20;;;2.10;;
1446;SDS011;717;51.522;7.266;2022-07-18T18:59:08;3.05;;;2.20;;
1446;SDS011;717;51.522;7.266;2022-07-18T19:04:05;5.15;;;2.50;;
1446;SDS011;717;51.522;7.266;2022-07-18T19:06:32;4.43;;;2.50;;
1446;SDS011;717;51.522;7.266;2022-07-18T19:08:59;5.13;;;2.30;;
1446;SDS011;717;51.522;7.266;2022-07-18T19:11:25;4.53;;;2.35;;
1446;SDS011;717;51.522;7.266;2022-07-18T19:13:53;3.33;;;2.80;;
1446;SDS011;717;51.522;7.266;2022-07-18T19:16:20;4.45;;;2.80;;
1446;SDS011;717;51.522;7.266;2022-07-18T19:18:47;7.65;;;3.20;;
1446;SDS011;717;51.522;7.266;2022-07-18T19:21:16;3.40;;;2.22;;
1446;SDS011;717;51.522;7.266;2022-07-18T19:23:44;3.00;;;2.25;;
1446;SDS011;717;51.522;7.266;2022-07-18T19:26:11;4.55;;;2.67;;
1446;SDS011;717;51.522;7.266;2022-07-18T19:28:38;4.65;;;2.60;;
1446;SDS011;717;51.522;7.266;2022-07-18T19:31:05;5.18;;;2.35;;
1446;SDS011;717;51.522;7.266;2022-07-18T19:33:33;4.50;;;2.53;;
1446;SDS011;717;51.522;7.266;2022-07-18T19:36:01;3.72;;;2.30;;
1446;SDS011;717;51.522;7.266;2022-07-18T19:38:29;3.20;;;2.20;;
1446;SDS011;717;51.522;7.266;2022-07-18T19:40:57;7.10;;;1.90;;
1446;SDS011;717;51.522;7.266;2022-07-18T19:43:24;11.05;;;2.72;;
1446;SDS011;717;51.522;7.266;2022-07-18T19:45:51;4.18;;;2.17;;
1446;SDS011;717;51.522;7.266;2022-07-18T19:48:17;4.90;;;2.53;;
1446;SDS011;717;51.522;7.266;2022-07-18T19:50:44;7.18;;;2.63;;
1446;SDS011;717;51.522;7.266;2022-07-18T19:53:11;3.55;;;2.60;;
1446;SDS011;717;51.522;7.266;2022-07-18T19:55:39;3.88;;;2.65;;
1446;SDS011;717;51.522;7.266;2022-07-18T19:58:07;4.72;;;2.70;;
1446;SDS011;717;51.522;7.266;2022-07-18T20:00:34;5.72;;;2.45;;
1446;SDS011;717;51.522;7.266;2022-07-18T20:03:02;4.68;;;2.90;;
1446;SDS011;717;51.522;7.266;2022-07-18T20:05:29;6.13;;;2.30;;
1446;SDS011;717;51.522;7.266;2022-07-18T20:07:56;3.78;;;2.53;;
1446;SDS011;717;51.522;7.266;2022-07-18T20:10:24;3.45;;;2.50;;
1446;SDS011;717;51.522;7.266;2022-07-18T20:12:53;4.57;;;2.38;;
1446;SDS011;717;51.522;7.266;2022-07-18T20:15:20;3.50;;;2.55;;
1446;SDS011;717;51.522;7.266;2022-07-18T20:17:47;3.90;;;2.60;;
1446;SDS011;717;51.522;7.266;2022-07-18T20:20:14;4.63;;;2.90;;
1446;SDS011;717;51.522;7.266;2022-07-18T20:22:40;4.30;;;3.20;;
1446;SDS011;717;51.522;7.266;2022-07-18T20:25:08;4.18;;;3.03;;
1446;SDS011;717;51.522;7.266;2022-07-18T20:27:35;4.30;;;3.10;;
1446;SDS011;717;51.522;7.266;2022-07-18T20:30:04;6.53;;;3.30;;
1446;SDS011;717;51.522;7.266;2022-07-18T20:32:32;7.13;;;3.45;;
1446;SDS011;717;51.522;7.266;2022-07-18T20:35:00;5.47;;;3.22;;
1446;SDS011;717;51.522;7.266;2022-07-18T20:37:27;4.78;;;3.55;;
1446;SDS011;717;51.522;7.266;2022-07-18T20:39:53;5.05;;;3.25;;
1446;SDS011;717;51.522;7.266;2022-07-18T20:42:20;6.78;;;3.58;;
1446;SDS011;717;51.522;7.266;2022-07-18T20:44:47;7.78;;;3.40;;
1446;SDS011;717;51.522;7.266;2022-07-18T20:47:14;5.50;;;3.13;;
1446;SDS011;717;51.522;7.266;2022-07-18T20:49:41;4.05;;;3.13;;
1446;SDS011;717;51.522;7.266;2022-07-18T20:52:08;4.60;;;3.03;;
1446;SDS011;717;51.522;7.266;2022-07-18T20:54:35;7.22;;;3.58;;
1446;SDS011;717;51.522;7.266;2022-07-18T20:57:01;5.00;;;3.08;;
1446;SDS011;717;51.522;7.266;2022-07-18T20:59:28;8.75;;;2.97;;
1446;SDS011;717;51.522;7.266;2022-07-18T21:01:55;5.57;;;3.60;;
1446;SDS011;717;51.522;7.266;2022-07-18T21:04:22;5.32;;;3.10;;
1446;SDS011;717;51.522;7.266;2022-07-18T21:06:49;8.27;;;3.58;;
1446;SDS011;717;51.522;7.266;2022-07-18T21:09:16;9.57;;;4.63;;
1446;SDS011;717;51.522;7.266;2022-07-18T21:11:42;8.95;;;4.05;;
1446;SDS011;717;51.522;7.266;2022-07-18T21:14:09;7.05;;;4.00;;
1446;SDS011;717;51.522;7.266;2022-07-18T21:16:54;4.72;;;3.50;;
1446;SDS011;717;51.522;7.266;2022-07-18T21:19:20;4.72;;;3.13;;
1446;SDS011;717;51.522;7.266;2022-07-18T21:21:48;6.47;;;3.03;;
1446;SDS011;717;51.522;7.266;2022-07-18T21:24:15;6.07;;;3.35;;
1446;SDS011;717;51.522;7.266;2022-07-18T21:26:42;6.05;;;3.75;;
1446;SDS011;717;51.522;7.266;2022-07-18T21:29:08;6.55;;;3.75;;
1446;SDS011;717;51.522;7.266;2022-07-18T21:31:35;5.95;;;3.53;;
1446;SDS011;717;51.522;7.266;2022-07-18T21:34:02;4.57;;;3.08;;
1446;SDS011;717;51.522;7.266;2022-07-18T21:36:30;6.40;;;3.45;;